sensor_id;sensor_type;location;lat;lon;timestamp;temperature;humidity
2022;DHT22;1015;49.756;6.994;2022-08-19T00:00:36;15.70;99.90
2022;DHT22;1015;49.756;6.994;2022-08-19T00:03:03;15.80;99.90
2022;DHT22;1015;49.756;6.994;2022-08-19T00:05:30;15.90;99.90
2022;DHT22;1015;49.756;6.994;2022-08-19T00:07:59;15.80;99.90
2022;DHT22;1015;49.756;6.994;2022-08-19T00:10:27;15.80;99.90
2022;DHT22;1015;49.756;6.994;2022-08-19T00:12:54;15.80;99.90
2022;DHT22;1015;49.756;6.994;2022-08-19T00:15:21;15.90;99.90
2022;DHT22;1015;49.756;6.994;2022-08-19T00:17:48;16.00;99.90
2022;DHT22;1015;49.756;6.994;2022-08-19T00:20:17;16.10;99.90
2022;DHT22;1015;49.756;6.994;2022-08-19T00:22:45;16.10;99.90
2022;DHT22;1015;49.756;6.994;2022-08-19T00:25:14;16.20;99.90
2022;DHT22;1015;49.756;6.994;2022-08-19T00:27:41;16.20;99.90
2022;DHT22;1015;49.756;6.994;2022-08-19T00:30:09;16.20;99.90
2022;DHT22;1015;49.756;6.994;2022-08-19T00:32:37;16.10;99.90
2022;DHT22;1015;49.756;6.994;2022-08-19T00:35:06;16.00;99.90
2022;DHT22;1015;49.756;6.994;2022-08-19T00:37:33;15.90;99.90
2022;DHT22;1015;49.756;6.994;2022-08-19T00:40:01;15.60;99.90
2022;DHT22;1015;49.756;6.994;2022-08-19T00:42:30;15.40;99.90
2022;DHT22;1015;49.756;6.994;2022-08-19T00:44:58;15.30;99.90
2022;DHT22;1015;49.756;6.994;2022-08-19T00:47:25;15.40;99.90
2022;DHT22;1015;49.756;6.994;2022-08-19T00:49:55;15.30;99.90
2022;DHT22;1015;49.756;6.994;2022-08-19T00:52:25;15.40;99.90
2022;DHT22;1015;49.756;6.994;2022-08-19T00:54:54;15.30;99.90
2022;DHT22;1015;49.756;6.994;2022-08-19T00:57:26;15.30;99.90
2022;DHT22;1015;49.756;6.994;2022-08-19T00:59:56;15.30;99.90
2022;DHT22;1015;49.756;6.994;2022-08-19T01:02:25;15.40;99.90
2022;DHT22;1015;49.756;6.994;2022-08-19T01:04:52;15.50;99.90
2022;DHT22;1015;49.756;6.994;2022-08-19T01:07:19;15.60;99.90
2022;DHT22;1015;49.756;6.994;2022-08-19T01:09:46;15.50;99.90
2022;DHT22;1015;49.756;6.994;2022-08-19T01:12:14;15.50;99.90
2022;DHT22;1015;49.756;6.994;2022-08-19T01:14:41;15.30;99.90
2022;DHT22;1015;49.756;6.994;2022-08-19T01:17:11;15.40;99.90
2022;DHT22;1015;49.756;6.994;2022-08-19T01:19:41;15.50;99.90
2022;DHT22;1015;49.756;6.994;2022-08-19T01:22:12;15.40;99.90
2022;DHT22;1015;49.756;6.994;2022-08-19T01:24:42;15.30;99.90
2022;DHT22;1015;49.756;6.994;2022-08-19T01:27:09;15.30;99.90
2022;DHT22;1015;49.756;6.994;2022-08-19T01:29:38;15.20;99.90
2022;DHT22;1015;49.756;6.994;2022-08-19T01:32:06;15.30;99.90
2022;DHT22;1015;49.756;6.994;2022-08-19T01:34:33;15.20;99.90
2022;DHT22;1015;49.756;6.994;2022-08-19T01:37:06;15.10;99.90
2022;DHT22;1015;49.756;6.994;2022-08-19T01:39:37;15.00;99.90
2022;DHT22;1015;49.756;6.994;2022-08-19T01:42:06;15.10;99.90
2022;DHT22;1015;49.756;6.994;2022-08-19T01:44:36;15.00;99.90
2022;DHT22;1015;49.756;6.994;2022-08-19T01:47:04;14.80;99.90
2022;DHT22;1015;49.756;6.994;2022-08-19T01:49:32;14.70;99.90
2022;DHT22;1015;49.756;6.994;2022-08-19T01:51:59;14.60;99.90
2022;DHT22;1015;49.756;6.994;2022-08-19T01:54:27;14.70;99.90
2022;DHT22;1015;49.756;6.994;2022-08-19T01:56:58;14.80;99.90
2022;DHT22;1015;49.756;6.994;2022-08-19T01:59:27;14.80;99.90
2022;DHT22;1015;49.756;6.994;2022-08-19T02:01:54;14.80;99.90
2022;DHT22;1015;49.756;6.994;2022-08-19T02:04:21;14.80;99.90
2022;DHT22;1015;49.756;6.994;2022-08-19T02:06:48;14.90;99.90
2022;DHT22;1015;49.756;6.994;2022-08-19T02:09:16;14.90;99.90
2022;DHT22;1015;49.756;6.994;2022-08-19T02:11:42;14.70;99.90
2022;DHT22;1015;49.756;6.994;2022-08-19T02:14:09;14.50;99.90
2022;DHT22;1015;49.756;6.994;2022-08-19T02:16:38;14.30;99.90
2022;DHT22;1015;49.756;6.994;2022-08-19T02:19:06;14.20;99.90
2022;DHT22;1015;49.756;6.994;2022-08-19T02:21:33;14.30;99.90
2022;DHT22;1015;49.756;6.994;2022-08-19T02:24:01;14.20;99.90
2022;DHT22;1015;49.756;6.994;2022-08-19T02:26:28;14.20;99.90
2022;DHT22;1015;49.756;6.994;2022-08-19T02:28:55;14.00;99.90
2022;DHT22;1015;49.756;6.994;2022-08-19T02:31:24;14.20;99.90
2022;DHT22;1015;49.756;6.994;2022-08-19T02:33:53;14.30;99.90
2022;DHT22;1015;49.756;6.994;2022-08-19T02:36:21;14.20;99.90
2022;DHT22;1015;49.756;6.994;2022-08-19T02:38:48;14.00;99.90
2022;DHT22;1015;49.756;6.994;2022-08-19T02:41:16;14.10;99.90
2022;DHT22;1015;49.756;6.994;2022-08-19T02:43:44;14.10;99.90
2022;DHT22;1015;49.756;6.994;2022-08-19T02:46:14;13.90;99.90
2022;DHT22;1015;49.756;6.994;2022-08-19T02:48:43;13.70;99.90
2022;DHT22;1015;49.756;6.994;2022-08-19T02:51:17;13.60;99.90
2022;DHT22;1015;49.756;6.994;2022-08-19T02:53:44;13.60;99.90
2022;DHT22;1015;49.756;6.994;2022-08-19T02:56:11;13.60;99.90
2022;DHT22;1015;49.756;6.994;2022-08-19T02:58:38;13.70;99.90
2022;DHT22;1015;49.756;6.994;2022-08-19T03:01:05;13.70;99.90
2022;DHT22;1015;49.756;6.994;2022-08-19T03:03:33;13.70;99.90
2022;DHT22;1015;49.756;6.994;2022-08-19T03:06:08;13.70;99.90
2022;DHT22;1015;49.756;6.994;2022-08-19T03:08:37;13.70;99.90
2022;DHT22;1015;49.756;6.994;2022-08-19T03:11:05;13.80;99.90
2022;DHT22;1015;49.756;6.994;2022-08-19T03:13:32;13.60;99.90
2022;DHT22;1015;49.756;6.994;2022-08-19T03:15:59;13.60;99.90
2022;DHT22;1015;49.756;6.994;2022-08-19T03:18:26;13.60;99.90
2022;DHT22;1015;49.756;6.994;2022-08-19T03:20:53;13.60;99.90
2022;DHT22;1015;49.756;6.994;2022-08-19T03:23:20;13.50;99.90
2022;DHT22;1015;49.756;6.994;2022-08-19T03:25:51;13.60;99.90
2022;DHT22;1015;49.756;6.994;2022-08-19T03:28:20;13.60;99.90
2022;DHT22;1015;49.756;6.994;2022-08-19T03:30:58;13.70;99.90
2022;DHT22;1015;49.756;6.994;2022-08-19T03:33:26;13.50;99.90
2022;DHT22;1015;49.756;6.994;2022-08-19T03:36:04;13.50;99.90
2022;DHT22;1015;49.756;6.994;2022-08-19T03:38:33;13.40;99.90
2022;DHT22;1015;49.756;6.994;2022-08-19T03:41:05;13.30;99.90
2022;DHT22;1015;49.756;6.994;2022-08-19T03:43:34;13.30;99.90
2022;DHT22;1015;49.756;6.994;2022-08-19T03:46:03;13.40;99.90
2022;DHT22;1015;49.756;6.994;2022-08-19T03:48:31;13.40;99.90
2022;DHT22;1015;49.756;6.994;2022-08-19T03:50:58;13.50;99.90
2022;DHT22;1015;49.756;6.994;2022-08-19T03:53:26;13.60;99.90
2022;DHT22;1015;49.756;6.994;2022-08-19T03:55:54;13.70;99.90
2022;DHT22;1015;49.756;6.994;2022-08-19T03:58:23;13.80;99.90
2022;DHT22;1015;49.756;6.994;2022-08-19T04:00:50;13.80;99.90
2022;DHT22;1015;49.756;6.994;2022-08-19T04:03:17;13.80;99.90
2022;DHT22;1015;49.756;6.994;2022-08-19T04:05:45;13.70;99.90
2022;DHT22;1015;49.756;6.994;2022-08-19T04:08:14;13.60;99.90
2022;DHT22;1015;49.756;6.994;2022-08-19T04:10:46;13.60;99.90
2022;DHT22;1015;49.756;6.994;2022-08-19T04:13:14;13.50;99.90
2022;DHT22;1015;49.756;6.994;2022-08-19T04:15:43;13.50;99.90
2022;DHT22;1015;49.756;6.994;2022-08-19T04:18:12;13.60;99.90
2022;DHT22;1015;49.756;6.994;2022-08-19T04:20:41;13.60;99.90
2022;DHT22;1015;49.756;6.994;2022-08-19T04:23:08;13.60;99.90
2022;DHT22;1015;49.756;6.994;2022-08-19T04:25:37;13.60;99.90
2022;DHT22;1015;49.756;6.994;2022-08-19T04:28:04;13.60;99.90
2022;DHT22;1015;49.756;6.994;2022-08-19T04:30:37;13.50;99.90
2022;DHT22;1015;49.756;6.994;2022-08-19T04:33:06;13.50;99.90
2022;DHT22;1015;49.756;6.994;2022-08-19T04:35:38;13.40;99.90
2022;DHT22;1015;49.756;6.994;2022-08-19T04:38:06;13.20;99.90
2022;DHT22;1015;49.756;6.994;2022-08-19T04:40:33;13.20;99.90
2022;DHT22;1015;49.756;6.994;2022-08-19T04:43:18;13.10;99.90
2022;DHT22;1015;49.756;6.994;2022-08-19T04:45:45;13.10;99.90
2022;DHT22;1015;49.756;6.994;2022-08-19T04:48:13;13.20;99.90
2022;DHT22;1015;49.756;6.994;2022-08-19T04:50:41;13.20;99.90
2022;DHT22;1015;49.756;6.994;2022-08-19T04:53:09;13.30;99.90
2022;DHT22;1015;49.756;6.994;2022-08-19T04:55:40;13.50;99.90
2022;DHT22;1015;49.756;6.994;2022-08-19T04:58:07;13.60;99.90
2022;DHT22;1015;49.756;6.994;2022-08-19T05:00:36;13.80;99.90
2022;DHT22;1015;49.756;6.994;2022-08-19T05:03:03;13.90;99.90
2022;DHT22;1015;49.756;6.994;2022-08-19T05:05:32;14.00;99.90
2022;DHT22;1015;49.756;6.994;2022-08-19T05:07:59;14.10;99.90
2022;DHT22;1015;49.756;6.994;2022-08-19T05:10:26;14.30;99.90
2022;DHT22;1015;49.756;6.994;2022-08-19T05:12:53;14.40;99.90
2022;DHT22;1015;49.756;6.994;2022-08-19T05:15:20;14.40;99.90
2022;DHT22;1015;49.756;6.994;2022-08-19T05:17:47;14.60;99.90
2022;DHT22;1015;49.756;6.994;2022-08-19T05:20:28;14.60;99.90
2022;DHT22;1015;49.756;6.994;2022-08-19T05:23:13;14.70;99.90
2022;DHT22;1015;49.756;6.994;2022-08-19T05:25:41;14.90;99.90
2022;DHT22;1015;49.756;6.994;2022-08-19T05:28:08;15.10;99.90
2022;DHT22;1015;49.756;6.994;2022-08-19T05:30:35;15.30;99.90
2022;DHT22;1015;49.756;6.994;2022-08-19T05:33:02;15.40;99.90
2022;DHT22;1015;49.756;6.994;2022-08-19T05:35:29;15.70;99.90
2022;DHT22;1015;49.756;6.994;2022-08-19T05:37:56;15.90;99.90
2022;DHT22;1015;49.756;6.994;2022-08-19T05:40:24;16.30;99.90
2022;DHT22;1015;49.756;6.994;2022-08-19T05:42:51;16.80;99.90
2022;DHT22;1015;49.756;6.994;2022-08-19T05:45:19;17.40;99.90
2022;DHT22;1015;49.756;6.994;2022-08-19T05:47:46;17.70;99.90
2022;DHT22;1015;49.756;6.994;2022-08-19T05:50:14;17.70;99.90
2022;DHT22;1015;49.756;6.994;2022-08-19T05:52:42;18.30;99.90
2022;DHT22;1015;49.756;6.994;2022-08-19T05:55:10;18.50;99.90
2022;DHT22;1015;49.756;6.994;2022-08-19T05:57:39;19.00;99.90
2022;DHT22;1015;49.756;6.994;2022-08-19T06:00:07;19.60;99.90
2022;DHT22;1015;49.756;6.994;2022-08-19T06:02:36;20.10;99.90
2022;DHT22;1015;49.756;6.994;2022-08-19T06:05:04;20.30;99.90
2022;DHT22;1015;49.756;6.994;2022-08-19T06:07:34;20.60;99.90
2022;DHT22;1015;49.756;6.994;2022-08-19T06:10:01;20.50;99.90
2022;DHT22;1015;49.756;6.994;2022-08-19T06:12:29;20.30;99.90
2022;DHT22;1015;49.756;6.994;2022-08-19T06:15:03;20.40;99.90
2022;DHT22;1015;49.756;6.994;2022-08-19T06:17:30;20.10;99.90
2022;DHT22;1015;49.756;6.994;2022-08-19T06:20:00;20.00;99.90
2022;DHT22;1015;49.756;6.994;2022-08-19T06:22:28;19.60;99.90
2022;DHT22;1015;49.756;6.994;2022-08-19T06:24:55;19.80;99.90
2022;DHT22;1015;49.756;6.994;2022-08-19T06:27:22;19.70;99.90
2022;DHT22;1015;49.756;6.994;2022-08-19T06:29:49;19.60;99.90
2022;DHT22;1015;49.756;6.994;2022-08-19T06:32:18;19.80;99.90
2022;DHT22;1015;49.756;6.994;2022-08-19T06:34:45;19.50;99.90
2022;DHT22;1015;49.756;6.994;2022-08-19T06:37:13;19.30;99.90
2022;DHT22;1015;49.756;6.994;2022-08-19T06:39:42;19.40;99.90
2022;DHT22;1015;49.756;6.994;2022-08-19T06:42:10;19.30;99.90
2022;DHT22;1015;49.756;6.994;2022-08-19T06:44:43;19.10;99.90
2022;DHT22;1015;49.756;6.994;2022-08-19T06:47:12;18.90;99.90
2022;DHT22;1015;49.756;6.994;2022-08-19T06:49:41;18.70;99.90
2022;DHT22;1015;49.756;6.994;2022-08-19T06:52:08;18.70;99.90
2022;DHT22;1015;49.756;6.994;2022-08-19T06:54:37;18.50;99.90
2022;DHT22;1015;49.756;6.994;2022-08-19T06:57:05;18.60;99.90
2022;DHT22;1015;49.756;6.994;2022-08-19T06:59:34;18.60;99.90
2022;DHT22;1015;49.756;6.994;2022-08-19T07:02:04;18.70;99.90
2022;DHT22;1015;49.756;6.994;2022-08-19T07:04:33;18.70;99.90
2022;DHT22;1015;49.756;6.994;2022-08-19T07:07:05;18.60;99.90
2022;DHT22;1015;49.756;6.994;2022-08-19T07:09:34;18.60;99.90
2022;DHT22;1015;49.756;6.994;2022-08-19T07:12:04;18.50;99.90
2022;DHT22;1015;49.756;6.994;2022-08-19T07:14:33;18.40;99.90
2022;DHT22;1015;49.756;6.994;2022-08-19T07:17:01;18.40;99.90
2022;DHT22;1015;49.756;6.994;2022-08-19T07:19:29;18.30;99.90
2022;DHT22;1015;49.756;6.994;2022-08-19T07:21:57;18.30;99.90
2022;DHT22;1015;49.756;6.994;2022-08-19T07:24:26;18.40;99.90
2022;DHT22;1015;49.756;6.994;2022-08-19T07:26:55;18.70;99.90
2022;DHT22;1015;49.756;6.994;2022-08-19T07:29:26;19.00;99.90
2022;DHT22;1015;49.756;6.994;2022-08-19T07:31:54;19.20;99.90
2022;DHT22;1015;49.756;6.994;2022-08-19T07:34:23;19.40;99.90
2022;DHT22;1015;49.756;6.994;2022-08-19T07:36:51;19.60;99.90
2022;DHT22;1015;49.756;6.994;2022-08-19T07:39:20;19.50;99.90
2022;DHT22;1015;49.756;6.994;2022-08-19T07:41:49;19.40;99.90
2022;DHT22;1015;49.756;6.994;2022-08-19T07:44:17;19.50;99.90
2022;DHT22;1015;49.756;6.994;2022-08-19T07:46:48;19.80;99.90
2022;DHT22;1015;49.756;6.994;2022-08-19T07:49:17;20.00;99.90
2022;DHT22;1015;49.756;6.994;2022-08-19T07:51:45;20.00;99.90
2022;DHT22;1015;49.756;6.994;2022-08-19T07:54:12;20.10;99.90
2022;DHT22;1015;49.756;6.994;2022-08-19T07:56:39;20.10;99.90
2022;DHT22;1015;49.756;6.994;2022-08-19T07:59:07;20.20;99.90
2022;DHT22;1015;49.756;6.994;2022-08-19T08:01:35;20.30;99.90
2022;DHT22;1015;49.756;6.994;2022-08-19T08:04:02;20.20;99.90
2022;DHT22;1015;49.756;6.994;2022-08-19T08:06:46;20.20;99.90
2022;DHT22;1015;49.756;6.994;2022-08-19T08:09:33;20.40;99.90
2022;DHT22;1015;49.756;6.994;2022-08-19T08:12:03;20.60;99.90
2022;DHT22;1015;49.756;6.994;2022-08-19T08:14:37;20.70;99.90
2022;DHT22;1015;49.756;6.994;2022-08-19T08:17:05;20.70;99.90
2022;DHT22;1015;49.756;6.994;2022-08-19T08:19:32;20.80;99.90
2022;DHT22;1015;49.756;6.994;2022-08-19T08:22:00;20.80;99.90
2022;DHT22;1015;49.756;6.994;2022-08-19T08:24:29;20.90;99.90
2022;DHT22;1015;49.756;6.994;2022-08-19T08:26:58;21.10;99.90
2022;DHT22;1015;49.756;6.994;2022-08-19T08:29:26;21.10;99.90
2022;DHT22;1015;49.756;6.994;2022-08-19T08:31:55;21.10;99.90
2022;DHT22;1015;49.756;6.994;2022-08-19T08:34:23;21.20;99.90
2022;DHT22;1015;49.756;6.994;2022-08-19T08:36:50;20.80;99.90
2022;DHT22;1015;49.756;6.994;2022-08-19T08:39:20;20.90;99.90
2022;DHT22;1015;49.756;6.994;2022-08-19T08:41:53;21.50;99.90
2022;DHT22;1015;49.756;6.994;2022-08-19T08:44:25;21.60;99.90
2022;DHT22;1015;49.756;6.994;2022-08-19T08:47:00;22.00;99.90
2022;DHT22;1015;49.756;6.994;2022-08-19T08:49:33;22.10;99.90
2022;DHT22;1015;49.756;6.994;2022-08-19T08:52:05;21.90;99.90
2022;DHT22;1015;49.756;6.994;2022-08-19T08:54:37;22.30;99.90
2022;DHT22;1015;49.756;6.994;2022-08-19T08:57:09;22.70;99.90
2022;DHT22;1015;49.756;6.994;2022-08-19T08:59:40;22.90;99.90
2022;DHT22;1015;49.756;6.994;2022-08-19T09:02:09;22.80;99.90
2022;DHT22;1015;49.756;6.994;2022-08-19T09:04:37;23.10;99.90
2022;DHT22;1015;49.756;6.994;2022-08-19T09:07:18;23.30;99.90
2022;DHT22;1015;49.756;6.994;2022-08-19T09:09:50;22.70;99.90
2022;DHT22;1015;49.756;6.994;2022-08-19T09:12:23;23.10;99.90
2022;DHT22;1015;49.756;6.994;2022-08-19T09:14:54;23.20;99.90
2022;DHT22;1015;49.756;6.994;2022-08-19T09:17:26;23.30;99.90
2022;DHT22;1015;49.756;6.994;2022-08-19T09:19:57;23.50;99.90
2022;DHT22;1015;49.756;6.994;2022-08-19T09:22:26;23.70;99.90
2022;DHT22;1015;49.756;6.994;2022-08-19T09:24:53;23.80;99.90
2022;DHT22;1015;49.756;6.994;2022-08-19T09:27:21;23.00;99.90
2022;DHT22;1015;49.756;6.994;2022-08-19T09:29:49;23.00;99.90
2022;DHT22;1015;49.756;6.994;2022-08-19T09:32:17;22.90;99.90
2022;DHT22;1015;49.756;6.994;2022-08-19T09:34:46;23.30;99.90
2022;DHT22;1015;49.756;6.994;2022-08-19T09:37:13;23.70;99.90
2022;DHT22;1015;49.756;6.994;2022-08-19T09:39:40;23.80;99.90
2022;DHT22;1015;49.756;6.994;2022-08-19T09:42:08;23.50;99.90
2022;DHT22;1015;49.756;6.994;2022-08-19T09:44:38;23.40;99.90
2022;DHT22;1015;49.756;6.994;2022-08-19T09:47:05;23.70;99.90
2022;DHT22;1015;49.756;6.994;2022-08-19T09:49:32;23.90;99.90
2022;DHT22;1015;49.756;6.994;2022-08-19T09:52:01;23.30;99.90
2022;DHT22;1015;49.756;6.994;2022-08-19T09:54:28;24.00;99.90
2022;DHT22;1015;49.756;6.994;2022-08-19T09:56:57;24.70;99.90
2022;DHT22;1015;49.756;6.994;2022-08-19T09:59:26;23.50;99.90
2022;DHT22;1015;49.756;6.994;2022-08-19T10:01:53;23.80;99.90
2022;DHT22;1015;49.756;6.994;2022-08-19T10:04:21;24.00;99.90
2022;DHT22;1015;49.756;6.994;2022-08-19T10:06:49;24.30;99.90
2022;DHT22;1015;49.756;6.994;2022-08-19T10:09:18;24.40;99.90
2022;DHT22;1015;49.756;6.994;2022-08-19T10:11:45;24.60;99.90
2022;DHT22;1015;49.756;6.994;2022-08-19T10:14:15;24.60;99.90
2022;DHT22;1015;49.756;6.994;2022-08-19T10:16:43;24.10;99.90
2022;DHT22;1015;49.756;6.994;2022-08-19T10:19:10;23.70;99.90
2022;DHT22;1015;49.756;6.994;2022-08-19T10:21:37;23.70;99.90
2022;DHT22;1015;49.756;6.994;2022-08-19T10:24:05;23.50;99.90
2022;DHT22;1015;49.756;6.994;2022-08-19T10:26:36;24.60;99.90
2022;DHT22;1015;49.756;6.994;2022-08-19T10:29:04;24.20;99.90
2022;DHT22;1015;49.756;6.994;2022-08-19T10:31:33;24.10;99.90
2022;DHT22;1015;49.756;6.994;2022-08-19T10:34:01;24.50;99.90
2022;DHT22;1015;49.756;6.994;2022-08-19T10:36:30;24.80;99.90
2022;DHT22;1015;49.756;6.994;2022-08-19T10:39:00;25.40;99.90
2022;DHT22;1015;49.756;6.994;2022-08-19T10:41:30;24.50;99.90
2022;DHT22;1015;49.756;6.994;2022-08-19T10:44:00;24.20;99.90
2022;DHT22;1015;49.756;6.994;2022-08-19T10:46:28;25.00;99.90
2022;DHT22;1015;49.756;6.994;2022-08-19T10:48:56;24.70;99.90
2022;DHT22;1015;49.756;6.994;2022-08-19T10:51:23;23.40;99.90
2022;DHT22;1015;49.756;6.994;2022-08-19T10:54:08;23.40;99.90
2022;DHT22;1015;49.756;6.994;2022-08-19T10:56:35;24.20;99.90
2022;DHT22;1015;49.756;6.994;2022-08-19T10:59:20;24.60;99.90
2022;DHT22;1015;49.756;6.994;2022-08-19T11:01:48;24.80;99.90
2022;DHT22;1015;49.756;6.994;2022-08-19T11:04:15;25.20;99.90
2022;DHT22;1015;49.756;6.994;2022-08-19T11:06:43;25.50;99.90
2022;DHT22;1015;49.756;6.994;2022-08-19T11:09:13;25.00;99.90
2022;DHT22;1015;49.756;6.994;2022-08-19T11:11:41;25.60;99.90
2022;DHT22;1015;49.756;6.994;2022-08-19T11:14:09;25.20;99.90
2022;DHT22;1015;49.756;6.994;2022-08-19T11:16:38;24.60;99.90
2022;DHT22;1015;49.756;6.994;2022-08-19T11:19:06;24.50;99.90
2022;DHT22;1015;49.756;6.994;2022-08-19T11:21:36;25.70;99.90
2022;DHT22;1015;49.756;6.994;2022-08-19T11:24:05;25.50;99.90
2022;DHT22;1015;49.756;6.994;2022-08-19T11:26:33;25.30;99.90
2022;DHT22;1015;49.756;6.994;2022-08-19T11:29:01;25.70;99.90
2022;DHT22;1015;49.756;6.994;2022-08-19T11:31:32;25.70;99.90
2022;DHT22;1015;49.756;6.994;2022-08-19T11:34:04;25.60;99.90
2022;DHT22;1015;49.756;6.994;2022-08-19T11:36:31;25.60;99.90
2022;DHT22;1015;49.756;6.994;2022-08-19T11:38:59;25.50;99.90
2022;DHT22;1015;49.756;6.994;2022-08-19T11:41:26;25.00;99.90
2022;DHT22;1015;49.756;6.994;2022-08-19T11:43:54;25.10;99.90
2022;DHT22;1015;49.756;6.994;2022-08-19T11:46:23;25.30;99.90
2022;DHT22;1015;49.756;6.994;2022-08-19T11:48:50;25.70;99.90
2022;DHT22;1015;49.756;6.994;2022-08-19T11:51:21;25.70;99.90
2022;DHT22;1015;49.756;6.994;2022-08-19T11:53:50;24.90;99.90
2022;DHT22;1015;49.756;6.994;2022-08-19T11:56:18;25.80;99.90
2022;DHT22;1015;49.756;6.994;2022-08-19T11:58:46;25.80;99.90
2022;DHT22;1015;49.756;6.994;2022-08-19T12:01:15;26.50;99.90
2022;DHT22;1015;49.756;6.994;2022-08-19T12:03:43;25.80;99.90
2022;DHT22;1015;49.756;6.994;2022-08-19T12:06:13;25.60;99.90
2022;DHT22;1015;49.756;6.994;2022-08-19T12:08:42;26.20;99.90
2022;DHT22;1015;49.756;6.994;2022-08-19T12:11:09;26.10;99.90
2022;DHT22;1015;49.756;6.994;2022-08-19T12:13:37;25.50;99.90
2022;DHT22;1015;49.756;6.994;2022-08-19T12:16:07;24.80;99.90
2022;DHT22;1015;49.756;6.994;2022-08-19T12:18:36;25.10;99.90
2022;DHT22;1015;49.756;6.994;2022-08-19T12:21:03;24.80;99.90
2022;DHT22;1015;49.756;6.994;2022-08-19T12:23:30;25.60;99.90
2022;DHT22;1015;49.756;6.994;2022-08-19T12:25:58;25.80;99.90
2022;DHT22;1015;49.756;6.994;2022-08-19T12:28:25;26.10;99.90
2022;DHT22;1015;49.756;6.994;2022-08-19T12:30:52;26.70;99.90
2022;DHT22;1015;49.756;6.994;2022-08-19T12:33:20;26.10;99.90
2022;DHT22;1015;49.756;6.994;2022-08-19T12:35:50;26.50;99.90
2022;DHT22;1015;49.756;6.994;2022-08-19T12:38:17;27.00;99.90
2022;DHT22;1015;49.756;6.994;2022-08-19T12:40:46;26.80;99.90
2022;DHT22;1015;49.756;6.994;2022-08-19T12:43:14;27.00;99.90
2022;DHT22;1015;49.756;6.994;2022-08-19T12:45:42;26.70;99.90
2022;DHT22;1015;49.756;6.994;2022-08-19T12:48:10;26.40;99.90
2022;DHT22;1015;49.756;6.994;2022-08-19T12:50:39;26.80;99.90
2022;DHT22;1015;49.756;6.994;2022-08-19T12:53:07;26.80;99.90
2022;DHT22;1015;49.756;6.994;2022-08-19T12:55:34;26.90;99.90
2022;DHT22;1015;49.756;6.994;2022-08-19T12:58:01;26.90;99.90
2022;DHT22;1015;49.756;6.994;2022-08-19T13:00:29;26.70;99.90
2022;DHT22;1015;49.756;6.994;2022-08-19T13:02:58;24.50;99.90
2022;DHT22;1015;49.756;6.994;2022-08-19T13:05:29;24.10;99.90
2022;DHT22;1015;49.756;6.994;2022-08-19T13:07:57;24.60;99.90
2022;DHT22;1015;49.756;6.994;2022-08-19T13:10:28;25.50;99.90
2022;DHT22;1015;49.756;6.994;2022-08-19T13:12:56;26.30;99.90
2022;DHT22;1015;49.756;6.994;2022-08-19T13:15:25;25.70;99.90
2022;DHT22;1015;49.756;6.994;2022-08-19T13:17:55;26.20;99.90
2022;DHT22;1015;49.756;6.994;2022-08-19T13:20:23;26.70;99.90
2022;DHT22;1015;49.756;6.994;2022-08-19T13:22:50;26.20;99.90
2022;DHT22;1015;49.756;6.994;2022-08-19T13:25:17;26.50;99.90
2022;DHT22;1015;49.756;6.994;2022-08-19T13:27:45;25.10;99.90
2022;DHT22;1015;49.756;6.994;2022-08-19T13:30:15;24.60;99.90
2022;DHT22;1015;49.756;6.994;2022-08-19T13:33:01;25.90;99.90
2022;DHT22;1015;49.756;6.994;2022-08-19T13:35:41;25.90;99.90
2022;DHT22;1015;49.756;6.994;2022-08-19T13:38:09;25.80;99.90
2022;DHT22;1015;49.756;6.994;2022-08-19T13:40:37;26.40;99.90
2022;DHT22;1015;49.756;6.994;2022-08-19T13:43:04;26.70;99.90
2022;DHT22;1015;49.756;6.994;2022-08-19T13:45:33;26.60;99.90
2022;DHT22;1015;49.756;6.994;2022-08-19T13:48:04;26.40;99.90
2022;DHT22;1015;49.756;6.994;2022-08-19T13:50:37;26.70;99.90
2022;DHT22;1015;49.756;6.994;2022-08-19T13:53:06;26.50;99.90
2022;DHT22;1015;49.756;6.994;2022-08-19T13:55:33;25.80;99.90
2022;DHT22;1015;49.756;6.994;2022-08-19T13:58:01;25.30;99.90
2022;DHT22;1015;49.756;6.994;2022-08-19T14:00:31;26.10;99.90
2022;DHT22;1015;49.756;6.994;2022-08-19T14:02:58;26.60;99.90
2022;DHT22;1015;49.756;6.994;2022-08-19T14:05:28;26.20;99.90
2022;DHT22;1015;49.756;6.994;2022-08-19T14:07:55;26.60;99.90
2022;DHT22;1015;49.756;6.994;2022-08-19T14:10:24;26.30;99.90
2022;DHT22;1015;49.756;6.994;2022-08-19T14:12:53;26.40;99.90
2022;DHT22;1015;49.756;6.994;2022-08-19T14:15:21;26.60;99.90
2022;DHT22;1015;49.756;6.994;2022-08-19T14:17:49;26.60;99.90
2022;DHT22;1015;49.756;6.994;2022-08-19T14:20:17;25.20;99.90
2022;DHT22;1015;49.756;6.994;2022-08-19T14:22:47;26.00;99.90
2022;DHT22;1015;49.756;6.994;2022-08-19T14:25:15;26.20;99.90
2022;DHT22;1015;49.756;6.994;2022-08-19T14:27:43;26.10;99.90
2022;DHT22;1015;49.756;6.994;2022-08-19T14:30:12;26.30;99.90
2022;DHT22;1015;49.756;6.994;2022-08-19T14:32:40;25.70;99.90
2022;DHT22;1015;49.756;6.994;2022-08-19T14:35:09;25.10;99.90
2022;DHT22;1015;49.756;6.994;2022-08-19T14:37:38;25.60;99.90
2022;DHT22;1015;49.756;6.994;2022-08-19T14:40:08;25.80;99.90
2022;DHT22;1015;49.756;6.994;2022-08-19T14:42:35;26.30;99.90
2022;DHT22;1015;49.756;6.994;2022-08-19T14:45:02;26.30;99.90
2022;DHT22;1015;49.756;6.994;2022-08-19T14:47:31;25.00;99.90
2022;DHT22;1015;49.756;6.994;2022-08-19T14:49:58;24.60;99.90
2022;DHT22;1015;49.756;6.994;2022-08-19T14:52:25;25.20;99.90
2022;DHT22;1015;49.756;6.994;2022-08-19T14:54:52;26.20;99.90
2022;DHT22;1015;49.756;6.994;2022-08-19T14:57:21;26.20;99.90
2022;DHT22;1015;49.756;6.994;2022-08-19T14:59:48;25.80;99.90
2022;DHT22;1015;49.756;6.994;2022-08-19T15:02:15;26.20;99.90
2022;DHT22;1015;49.756;6.994;2022-08-19T15:04:42;27.00;99.90
2022;DHT22;1015;49.756;6.994;2022-08-19T15:07:10;26.60;99.90
2022;DHT22;1015;49.756;6.994;2022-08-19T15:09:37;26.20;99.90
2022;DHT22;1015;49.756;6.994;2022-08-19T15:12:04;26.60;99.90
2022;DHT22;1015;49.756;6.994;2022-08-19T15:14:35;26.90;99.90
2022;DHT22;1015;49.756;6.994;2022-08-19T15:17:04;26.70;99.90
2022;DHT22;1015;49.756;6.994;2022-08-19T15:19:31;26.50;99.90
2022;DHT22;1015;49.756;6.994;2022-08-19T15:22:00;27.00;99.90
2022;DHT22;1015;49.756;6.994;2022-08-19T15:24:27;26.10;99.90
2022;DHT22;1015;49.756;6.994;2022-08-19T15:26:54;25.60;99.90
2022;DHT22;1015;49.756;6.994;2022-08-19T15:29:21;25.20;99.90
2022;DHT22;1015;49.756;6.994;2022-08-19T15:31:51;25.40;99.90
2022;DHT22;1015;49.756;6.994;2022-08-19T15:34:20;25.40;99.90
2022;DHT22;1015;49.756;6.994;2022-08-19T15:36:47;25.30;99.90
2022;DHT22;1015;49.756;6.994;2022-08-19T15:39:14;25.30;99.90
2022;DHT22;1015;49.756;6.994;2022-08-19T15:41:42;25.70;99.90
2022;DHT22;1015;49.756;6.994;2022-08-19T15:44:11;25.10;99.90
2022;DHT22;1015;49.756;6.994;2022-08-19T15:46:39;25.10;99.90
2022;DHT22;1015;49.756;6.994;2022-08-19T15:49:09;25.00;99.90
2022;DHT22;1015;49.756;6.994;2022-08-19T15:51:37;25.20;99.90
2022;DHT22;1015;49.756;6.994;2022-08-19T15:54:07;25.70;99.90
2022;DHT22;1015;49.756;6.994;2022-08-19T15:56:34;25.60;99.90
2022;DHT22;1015;49.756;6.994;2022-08-19T15:59:19;25.30;99.90
2022;DHT22;1015;49.756;6.994;2022-08-19T16:02:05;25.00;99.90
2022;DHT22;1015;49.756;6.994;2022-08-19T16:04:52;24.90;99.90
2022;DHT22;1015;49.756;6.994;2022-08-19T16:07:40;24.90;99.90
2022;DHT22;1015;49.756;6.994;2022-08-19T16:10:10;24.80;99.90
2022;DHT22;1015;49.756;6.994;2022-08-19T16:12:39;24.30;99.90